Time;durP1;ratioP1;P1;durP2;ratioP2;P2;SDS_P1;SDS_P2;PMS_P1;PMS_P2;Temp;Humidity;BMP_temperature;BMP_pressure;BME280_temperature;BME280_humidity;BME280_pressure;Samples;Min_cycle;Max_cycle;Signal;HPM_P1;HPM_P2
2021/08/23 00:02:08;;;;;;;;;;;16.60;90.30;;;;;;5046302;28;20002;-81
2021/08/23 00:04:33;;;;;;;;;;;16.50;90.30;;;;;;5046360;28;20382;-79
2021/08/23 00:06:59;;;;;;;;;;;16.50;90.30;;;;;;5047567;28;20065;-79
2021/08/23 00:09:24;;;;;;;;;;;16.50;90.20;;;;;;5047476;28;19931;-80
2021/08/23 00:11:50;;;;;;;;;;;16.50;90.20;;;;;;5047612;28;19909;-79
2021/08/23 00:14:15;;;;;;;;;;;16.50;90.20;;;;;;5046125;28;19913;-79
2021/08/23 00:16:42;;;;;;;;;;;16.60;90.20;;;;;;5046303;28;19915;-80
2021/08/23 00:19:07;;;;;;;;;;;16.50;90.20;;;;;;5047127;28;19918;-80
2021/08/23 00:21:41;;;;;;;;;;;16.60;90.20;;;;;;5045940;28;19912;-79
2021/08/23 00:24:17;;;;;;;;;;;16.50;90.20;;;;;;5046549;28;20350;-78
2021/08/23 00:26:43;;;;;;;;;;;16.50;90.20;;;;;;5046112;28;19908;-79
2021/08/23 00:29:08;;;;;;;;;;;16.40;90.30;;;;;;5047213;28;19909;-81
2021/08/23 00:31:34;;;;;;;;;;;16.40;90.30;;;;;;5046067;28;19921;-80
2021/08/23 00:33:59;;;;;;;;;;;16.40;90.30;;;;;;5032808;28;19981;-79
2021/08/23 00:36:25;;;;;;;;;;;16.40;90.30;;;;;;5049700;28;19958;-79
2021/08/23 00:38:51;;;;;;;;;;;16.40;90.30;;;;;;5050862;28;20342;-79
2021/08/23 00:41:16;;;;;;;;;;;16.40;90.30;;;;;;5050726;28;20291;-79
2021/08/23 00:43:42;;;;;;;;;;;16.30;90.30;;;;;;5049494;28;19908;-78
2021/08/23 00:46:07;;;;;;;;;;;16.30;90.30;;;;;;5049576;28;19960;-79
2021/08/23 00:48:33;;;;;;;;;;;16.30;90.30;;;;;;5049364;28;19916;-79
2021/08/23 00:51:00;;;;;;;;;;;16.20;90.30;;;;;;5050558;28;20346;-79
2021/08/23 00:53:25;;;;;;;;;;;16.20;90.30;;;;;;5050587;28;20009;-78
2021/08/23 00:55:51;;;;;;;;;;;16.10;90.40;;;;;;5049323;28;19950;-79
2021/08/23 00:58:17;;;;;;;;;;;16.00;90.40;;;;;;5050484;28;20428;-80
2021/08/23 01:00:45;;;;;;;;;;;16.00;90.40;;;;;;5049038;28;20344;-79
2021/08/23 01:03:15;;;;;;;;;;;16.00;90.40;;;;;;5050411;28;20365;-79
2021/08/23 01:05:41;;;;;;;;;;;15.90;90.50;;;;;;5050316;28;19908;-79
2021/08/23 01:08:26;;;;;;;;;;;15.90;90.50;;;;;;5049048;28;19908;-80
2021/08/23 01:10:52;;;;;;;;;;;15.90;90.70;;;;;;5050218;28;19935;-80
2021/08/23 01:13:20;;;;;;;;;;;15.90;90.50;;;;;;5050192;28;19908;-80
2021/08/23 01:15:45;;;;;;;;;;;15.90;90.50;;;;;;5048927;28;20366;-79
2021/08/23 01:18:11;;;;;;;;;;;15.90;90.40;;;;;;5049942;28;19960;-79
2021/08/23 01:20:39;;;;;;;;;;;15.90;90.40;;;;;;5050142;28;19924;-78
2021/08/23 01:23:05;;;;;;;;;;;15.90;90.40;;;;;;5048662;28;19960;-78
2021/08/23 01:25:32;;;;;;;;;;;15.80;90.40;;;;;;5050029;28;20351;-78
2021/08/23 01:27:58;;;;;;;;;;;15.80;90.40;;;;;;5049982;28;19987;-79
2021/08/23 01:30:25;;;;;;;;;;;15.80;90.40;;;;;;5050073;28;19955;-80
2021/08/23 01:32:50;;;;;;;;;;;15.70;90.50;;;;;;5049857;28;19905;-79
2021/08/23 01:35:16;;;;;;;;;;;15.70;90.50;;;;;;5049890;28;19915;-80
2021/08/23 01:37:41;;;;;;;;;;;15.70;90.50;;;;;;5048525;28;19910;-79
2021/08/23 01:40:07;;;;;;;;;;;15.70;90.50;;;;;;5049693;28;20356;-78
2021/08/23 01:42:33;;;;;;;;;;;15.70;90.50;;;;;;5048179;28;20286;-79
2021/08/23 01:44:59;;;;;;;;;;;15.70;90.50;;;;;;5049473;28;20361;-79
2021/08/23 01:47:24;;;;;;;;;;;15.60;90.50;;;;;;5048179;28;19935;-78
2021/08/23 01:49:50;;;;;;;;;;;15.60;90.50;;;;;;5031557;28;19952;-80
2021/08/23 01:52:16;;;;;;;;;;;15.60;90.50;;;;;;5048248;28;19913;-79
2021/08/23 01:54:42;;;;;;;;;;;15.60;90.50;;;;;;5049614;28;19956;-78
2021/08/23 01:57:09;;;;;;;;;;;15.60;90.50;;;;;;5049502;28;19905;-79
2021/08/23 01:59:34;;;;;;;;;;;15.50;90.50;;;;;;5047990;28;19916;-80
2021/08/23 02:02:00;;;;;;;;;;;15.40;90.50;;;;;;5049373;28;19913;-79
2021/08/23 02:04:25;;;;;;;;;;;15.40;90.50;;;;;;5048219;28;20409;-79
2021/08/23 02:06:51;;;;;;;;;;;15.40;90.60;;;;;;5049268;28;19916;-79
2021/08/23 02:09:17;;;;;;;;;;;15.40;90.60;;;;;;5047762;28;20284;-78
2021/08/23 02:11:42;;;;;;;;;;;15.40;90.60;;;;;;5047808;28;20003;-79
2021/08/23 02:14:08;;;;;;;;;;;15.40;90.60;;;;;;5047855;28;19913;-79
2021/08/23 02:16:38;;;;;;;;;;;15.30;90.60;;;;;;5049040;28;19909;-79
2021/08/23 02:19:04;;;;;;;;;;;15.30;90.60;;;;;;5048762;28;19926;-79
2021/08/23 02:21:29;;;;;;;;;;;15.30;90.60;;;;;;5048913;28;20015;-80
2021/08/23 02:23:55;;;;;;;;;;;15.30;90.60;;;;;;5047561;28;19909;-78
2021/08/23 02:26:21;;;;;;;;;;;15.40;90.60;;;;;;5047525;28;19912;-80
2021/08/23 02:28:46;;;;;;;;;;;15.30;90.60;;;;;;5048709;28;20295;-80
2021/08/23 02:31:12;;;;;;;;;;;15.30;90.50;;;;;;5047489;28;19909;-79
2021/08/23 02:33:37;;;;;;;;;;;15.20;90.50;;;;;;5048733;28;19909;-79
2021/08/23 02:36:03;;;;;;;;;;;15.10;90.60;;;;;;5031018;28;19909;-79
2021/08/23 02:38:29;;;;;;;;;;;15.10;90.70;;;;;;5048585;28;19954;-78
2021/08/23 02:40:54;;;;;;;;;;;15.00;90.70;;;;;;5047542;28;19912;-80
2021/08/23 02:43:20;;;;;;;;;;;15.10;90.70;;;;;;5048559;28;19912;-79
2021/08/23 02:45:45;;;;;;;;;;;15.10;90.70;;;;;;5048669;28;19909;-78
2021/08/23 02:48:11;;;;;;;;;;;15.10;90.70;;;;;;5047178;28;19908;-78
2021/08/23 02:50:36;;;;;;;;;;;15.10;90.70;;;;;;5048448;28;19955;-79
2021/08/23 02:53:02;;;;;;;;;;;15.00;90.60;;;;;;5047192;28;19963;-77
2021/08/23 02:55:27;;;;;;;;;;;15.00;90.60;;;;;;5047749;28;19912;-77
2021/08/23 02:57:53;;;;;;;;;;;15.00;90.60;;;;;;5047286;28;19909;-77
2021/08/23 03:00:19;;;;;;;;;;;15.00;90.70;;;;;;5046956;28;19983;-79
2021/08/23 03:02:44;;;;;;;;;;;14.90;90.70;;;;;;5047010;28;19924;-79
2021/08/23 03:05:10;;;;;;;;;;;14.90;90.70;;;;;;5048264;28;20000;-78
2021/08/23 03:07:35;;;;;;;;;;;14.90;90.70;;;;;;5048169;28;19915;-79
2021/08/23 03:10:01;;;;;;;;;;;14.90;90.70;;;;;;5046866;28;19959;-78
2021/08/23 03:12:27;;;;;;;;;;;14.90;90.70;;;;;;5030277;28;20187;-80
2021/08/23 03:14:52;;;;;;;;;;;14.90;90.70;;;;;;5046654;28;20419;-76
2021/08/23 03:17:20;;;;;;;;;;;14.90;90.80;;;;;;5046711;28;19908;-78
2021/08/23 03:19:45;;;;;;;;;;;14.90;90.80;;;;;;5046367;28;20338;-79
2021/08/23 03:22:11;;;;;;;;;;;14.90;90.80;;;;;;5046604;28;20200;-79
2021/08/23 03:24:37;;;;;;;;;;;14.90;90.80;;;;;;5046694;28;19958;-78
2021/08/23 03:27:02;;;;;;;;;;;14.90;90.80;;;;;;5046742;28;20417;-78
2021/08/23 03:29:28;;;;;;;;;;;14.90;90.80;;;;;;5046582;28;19959;-79
2021/08/23 03:31:53;;;;;;;;;;;14.90;90.80;;;;;;5047996;28;19979;-78
2021/08/23 03:34:19;;;;;;;;;;;14.80;90.70;;;;;;5046685;28;19909;-77
2021/08/23 03:36:45;;;;;;;;;;;14.80;90.70;;;;;;5048008;28;20313;-78
2021/08/23 03:39:11;;;;;;;;;;;14.70;90.70;;;;;;5046702;28;19987;-79
2021/08/23 03:41:37;;;;;;;;;;;14.70;90.80;;;;;;5046698;28;20390;-77
2021/08/23 03:44:03;;;;;;;;;;;14.70;90.80;;;;;;5048204;28;19904;-79
2021/08/23 03:46:32;;;;;;;;;;;14.60;90.80;;;;;;5046479;28;19909;-79
2021/08/23 03:48:59;;;;;;;;;;;14.60;90.90;;;;;;5046428;28;19909;-77
2021/08/23 03:51:25;;;;;;;;;;;14.60;90.90;;;;;;5047678;28;20290;-79
2021/08/23 03:53:50;;;;;;;;;;;14.60;90.90;;;;;;5029867;28;19916;-78
2021/08/23 03:56:16;;;;;;;;;;;14.60;90.90;;;;;;5047796;28;19913;-77
2021/08/23 03:58:41;;;;;;;;;;;14.50;90.90;;;;;;5046412;28;19909;-79
2021/08/23 04:01:07;;;;;;;;;;;14.50;90.90;;;;;;5029738;28;19912;-79
2021/08/23 04:03:32;;;;;;;;;;;14.50;90.90;;;;;;5047599;28;19995;-77
2021/08/23 04:05:58;;;;;;;;;;;14.50;90.90;;;;;;5047963;28;19920;-78
2021/08/23 04:08:23;;;;;;;;;;;14.40;90.90;;;;;;5050350;28;19913;-77
2021/08/23 04:10:49;;;;;;;;;;;14.40;91.00;;;;;;5050313;28;19916;-79
2021/08/23 04:13:15;;;;;;;;;;;14.30;91.00;;;;;;5033416;28;20280;-79
2021/08/23 04:15:44;;;;;;;;;;;14.30;91.20;;;;;;5051393;28;19915;-79
2021/08/23 04:18:10;;;;;;;;;;;14.30;91.00;;;;;;5049719;28;19956;-78
2021/08/23 04:20:36;;;;;;;;;;;14.30;91.00;;;;;;5033608;28;20002;-79
2021/08/23 04:23:01;;;;;;;;;;;14.30;91.10;;;;;;5051312;28;20119;-79
2021/08/23 04:25:27;;;;;;;;;;;14.30;91.10;;;;;;5051298;28;20321;-78
2021/08/23 04:27:52;;;;;;;;;;;14.30;91.30;;;;;;5051134;28;19915;-78
2021/08/23 04:30:18;;;;;;;;;;;14.30;91.10;;;;;;5051023;28;19915;-78
2021/08/23 04:32:43;;;;;;;;;;;14.30;91.20;;;;;;5050943;28;19963;-79
2021/08/23 04:35:09;;;;;;;;;;;14.30;91.20;;;;;;5049842;28;19908;-79
2021/08/23 04:37:34;;;;;;;;;;;14.30;91.20;;;;;;5049773;28;19913;-78
2021/08/23 04:40:00;;;;;;;;;;;14.30;91.20;;;;;;5050572;28;19913;-79
2021/08/23 04:42:25;;;;;;;;;;;14.30;91.20;;;;;;5049841;28;19913;-79
2021/08/23 04:44:51;;;;;;;;;;;14.30;91.30;;;;;;5049491;28;19920;-78
2021/08/23 04:47:16;;;;;;;;;;;14.30;91.30;;;;;;5049755;28;19987;-76
2021/08/23 04:49:43;;;;;;;;;;;14.30;91.20;;;;;;5049343;28;19909;-78
2021/08/23 04:52:08;;;;;;;;;;;14.30;91.20;;;;;;5049757;28;19927;-78
2021/08/23 04:54:34;;;;;;;;;;;14.30;91.20;;;;;;5050727;28;19917;-79
2021/08/23 04:56:59;;;;;;;;;;;14.30;91.10;;;;;;5032677;28;20355;-77
2021/08/23 04:59:25;;;;;;;;;;;14.30;91.10;;;;;;5049129;28;20298;-78
2021/08/23 05:01:51;;;;;;;;;;;14.20;91.10;;;;;;5049088;28;20356;-78
2021/08/23 05:04:16;;;;;;;;;;;14.20;91.10;;;;;;5032445;28;20268;-78
2021/08/23 05:06:42;;;;;;;;;;;14.20;91.10;;;;;;5049089;28;19916;-79
2021/08/23 05:09:07;;;;;;;;;;;14.10;91.20;;;;;;5050282;28;20334;-78
2021/08/23 05:11:35;;;;;;;;;;;14.10;91.30;;;;;;5048981;28;19915;-78
2021/08/23 05:14:00;;;;;;;;;;;14.10;91.30;;;;;;5050392;28;19915;-78
2021/08/23 05:16:26;;;;;;;;;;;14.10;91.30;;;;;;5048831;28;19909;-78
2021/08/23 05:18:51;;;;;;;;;;;14.10;91.30;;;;;;5047709;28;19924;-78
2021/08/23 05:21:17;;;;;;;;;;;14.10;91.30;;;;;;5050011;28;20023;-78
2021/08/23 05:23:42;;;;;;;;;;;14.00;91.30;;;;;;5032515;28;19958;-78
2021/08/23 05:26:08;;;;;;;;;;;14.00;91.30;;;;;;5049881;28;20387;-78
2021/08/23 05:28:34;;;;;;;;;;;13.90;91.30;;;;;;5048624;28;20294;-78
2021/08/23 05:30:59;;;;;;;;;;;13.90;91.40;;;;;;5049938;28;20022;-78
2021/08/23 05:33:25;;;;;;;;;;;13.90;91.40;;;;;;5049728;28;19908;-77
2021/08/23 05:35:51;;;;;;;;;;;13.90;91.40;;;;;;5048495;28;19927;-79
2021/08/23 05:38:16;;;;;;;;;;;13.90;91.40;;;;;;5049614;28;19966;-79
2021/08/23 05:40:42;;;;;;;;;;;13.90;91.40;;;;;;5048424;28;19913;-78
2021/08/23 05:43:07;;;;;;;;;;;14.00;91.40;;;;;;5048803;28;19908;-79
2021/08/23 05:45:33;;;;;;;;;;;14.00;91.40;;;;;;5048346;28;20367;-79
2021/08/23 05:47:58;;;;;;;;;;;14.00;91.40;;;;;;5031812;28;19951;-78
2021/08/23 05:50:24;;;;;;;;;;;14.10;91.40;;;;;;5049487;28;20358;-78
2021/08/23 05:52:49;;;;;;;;;;;14.10;91.40;;;;;;5048307;28;19909;-78
2021/08/23 05:55:15;;;;;;;;;;;14.10;91.40;;;;;;5048316;28;19909;-77
2021/08/23 05:57:41;;;;;;;;;;;14.20;91.40;;;;;;5047793;28;19916;-78
2021/08/23 06:00:07;;;;;;;;;;;14.20;91.40;;;;;;5049243;28;20283;-78
2021/08/23 06:02:33;;;;;;;;;;;14.30;91.40;;;;;;5049218;28;20004;-77
2021/08/23 06:04:59;;;;;;;;;;;14.40;91.40;;;;;;5047831;28;20333;-78
2021/08/23 06:07:24;;;;;;;;;;;14.40;91.40;;;;;;5031501;28;19923;-78
2021/08/23 06:09:50;;;;;;;;;;;14.50;91.40;;;;;;5049077;28;19908;-79
2021/08/23 06:12:16;;;;;;;;;;;14.60;91.40;;;;;;5031087;28;19912;-78
2021/08/23 06:14:41;;;;;;;;;;;14.60;91.40;;;;;;5047623;28;19966;-79
2021/08/23 06:17:07;;;;;;;;;;;14.70;91.40;;;;;;5048088;28;19912;-79
2021/08/23 06:19:33;;;;;;;;;;;14.80;91.40;;;;;;5047432;28;19919;-78
2021/08/23 06:21:58;;;;;;;;;;;14.90;91.40;;;;;;5047605;28;19913;-77
2021/08/23 06:24:24;;;;;;;;;;;15.10;91.40;;;;;;5047759;28;20412;-77
2021/08/23 06:26:49;;;;;;;;;;;15.20;91.30;;;;;;5047079;28;19912;-77
2021/08/23 06:29:15;;;;;;;;;;;15.30;91.20;;;;;;5046821;28;19916;-79
2021/08/23 06:31:41;;;;;;;;;;;15.40;91.20;;;;;;5048095;28;19909;-79
2021/08/23 06:34:07;;;;;;;;;;;15.60;91.20;;;;;;5047235;28;19988;-77
2021/08/23 06:36:33;;;;;;;;;;;15.60;91.20;;;;;;5047302;28;19916;-79
2021/08/23 06:38:59;;;;;;;;;;;15.80;91.20;;;;;;5047292;28;19904;-78
2021/08/23 06:41:25;;;;;;;;;;;15.90;91.20;;;;;;5047310;28;19935;-77
2021/08/23 06:43:51;;;;;;;;;;;16.10;91.10;;;;;;5048408;28;19916;-79
2021/08/23 06:46:17;;;;;;;;;;;16.10;91.00;;;;;;5048423;28;19908;-79
2021/08/23 06:48:43;;;;;;;;;;;16.20;91.00;;;;;;5048325;28;20344;-77
2021/08/23 06:51:08;;;;;;;;;;;16.30;91.00;;;;;;5046946;28;20222;-77
2021/08/23 06:53:34;;;;;;;;;;;16.30;91.10;;;;;;5047228;28;19920;-79
2021/08/23 06:55:59;;;;;;;;;;;16.30;91.10;;;;;;5048140;28;20475;-78
2021/08/23 06:58:25;;;;;;;;;;;16.30;91.10;;;;;;5046768;28;19944;-77
2021/08/23 07:00:50;;;;;;;;;;;16.20;91.10;;;;;;5029690;28;20537;-74
2021/08/23 07:03:16;;;;;;;;;;;16.20;91.20;;;;;;5047759;28;19999;-78
2021/08/23 07:05:42;;;;;;;;;;;16.20;91.30;;;;;;5047047;28;19908;-79
2021/08/23 07:08:07;;;;;;;;;;;16.10;91.30;;;;;;5048057;28;19904;-77
2021/08/23 07:10:33;;;;;;;;;;;16.10;91.40;;;;;;5029797;28;20279;-79
2021/08/23 07:12:59;;;;;;;;;;;16.10;91.60;;;;;;5046643;28;19916;-77
2021/08/23 07:15:25;;;;;;;;;;;16.20;91.80;;;;;;5046743;28;19913;-79
2021/08/23 07:17:50;;;;;;;;;;;16.30;91.90;;;;;;5046520;28;20370;-79
2021/08/23 07:20:16;;;;;;;;;;;16.50;91.90;;;;;;5047602;28;19913;-78
2021/08/23 07:22:41;;;;;;;;;;;16.60;91.80;;;;;;5046245;28;19917;-78
2021/08/23 07:25:07;;;;;;;;;;;16.80;91.80;;;;;;5047597;28;19916;-78
2021/08/23 07:27:33;;;;;;;;;;;17.10;91.90;;;;;;5046351;28;19915;-79
2021/08/23 07:29:59;;;;;;;;;;;17.50;91.70;;;;;;5047554;28;19905;-78
2021/08/23 07:32:24;;;;;;;;;;;17.70;91.50;;;;;;5047704;28;19919;-80
2021/08/23 07:34:50;;;;;;;;;;;18.10;92.00;;;;;;5029852;28;19909;-79
2021/08/23 07:37:16;;;;;;;;;;;18.90;92.30;;;;;;5047810;28;19904;-78
2021/08/23 07:39:43;;;;;;;;;;;19.90;92.30;;;;;;5046272;28;20335;-78
2021/08/23 07:42:09;;;;;;;;;;;20.80;92.00;;;;;;5050058;28;19916;-78
2021/08/23 07:44:34;;;;;;;;;;;21.50;91.40;;;;;;5051362;28;19932;-78
2021/08/23 07:47:00;;;;;;;;;;;22.00;91.10;;;;;;5050290;28;19955;-79
2021/08/23 07:49:25;;;;;;;;;;;22.60;91.30;;;;;;5050312;28;20310;-79
2021/08/23 07:51:51;;;;;;;;;;;23.40;91.30;;;;;;5049999;28;19923;-81
2021/08/23 07:54:17;;;;;;;;;;;24.30;91.10;;;;;;5051371;28;20348;-79
2021/08/23 07:56:43;;;;;;;;;;;24.90;90.40;;;;;;5050007;28;19909;-79
2021/08/23 07:59:08;;;;;;;;;;;25.20;90.10;;;;;;5049460;28;19954;-79
2021/08/23 08:01:34;;;;;;;;;;;25.40;90.10;;;;;;5051193;28;19927;-81
2021/08/23 08:03:59;;;;;;;;;;;25.70;90.50;;;;;;5051112;28;19909;-79
2021/08/23 08:06:25;;;;;;;;;;;26.10;90.40;;;;;;5051301;28;19954;-80
2021/08/23 08:08:51;;;;;;;;;;;26.50;90.30;;;;;;5051029;28;20355;-79
2021/08/23 08:11:17;;;;;;;;;;;26.90;90.40;;;;;;5051084;28;19913;-77
2021/08/23 08:13:42;;;;;;;;;;;27.10;90.00;;;;;;5051107;28;20304;-79
2021/08/23 08:16:08;;;;;;;;;;;26.90;89.70;;;;;;5050714;28;20214;-80
2021/08/23 08:18:33;;;;;;;;;;;26.80;90.00;;;;;;5050859;28;19919;-79
2021/08/23 08:20:59;;;;;;;;;;;26.90;90.20;;;;;;5050727;28;19918;-80
2021/08/23 08:23:25;;;;;;;;;;;27.20;90.50;;;;;;5048743;28;20011;-79
2021/08/23 08:25:50;;;;;;;;;;;27.40;90.10;;;;;;5050612;28;19964;-80
2021/08/23 08:28:16;;;;;;;;;;;27.70;90.30;;;;;;5050831;28;20474;-78
2021/08/23 08:30:41;;;;;;;;;;;28.00;90.50;;;;;;5049458;28;19995;-78
2021/08/23 08:33:07;;;;;;;;;;;28.60;90.40;;;;;;5050596;28;19909;-79
2021/08/23 08:35:33;;;;;;;;;;;29.00;89.90;;;;;;5050465;28;19913;-80
2021/08/23 08:37:58;;;;;;;;;;;29.30;89.60;;;;;;5032681;28;20344;-78
2021/08/23 08:40:24;;;;;;;;;;;29.60;89.30;;;;;;5048766;28;20381;-79
2021/08/23 08:42:50;;;;;;;;;;;30.10;89.70;;;;;;5048610;28;20287;-80
2021/08/23 08:45:16;;;;;;;;;;;30.60;88.80;;;;;;5048462;28;19905;-80
2021/08/23 08:47:42;;;;;;;;;;;30.90;89.00;;;;;;5050257;28;19944;-79
2021/08/23 08:50:09;;;;;;;;;;;31.30;88.30;;;;;;5050082;28;19904;-79
2021/08/23 08:52:35;;;;;;;;;;;31.60;86.30;;;;;;5047875;28;19920;-78
2021/08/23 08:55:01;;;;;;;;;;;32.00;86.40;;;;;;5049566;28;19913;-79
2021/08/23 08:57:26;;;;;;;;;;;32.30;85.60;;;;;;5048747;28;19916;-79
2021/08/23 08:59:52;;;;;;;;;;;32.30;84.40;;;;;;5031981;28;20463;-79
2021/08/23 09:02:17;;;;;;;;;;;32.40;84.20;;;;;;5048661;28;20248;-79
2021/08/23 09:04:43;;;;;;;;;;;32.30;83.70;;;;;;5048658;28;20003;-80
2021/08/23 09:07:09;;;;;;;;;;;32.30;84.40;;;;;;5048485;28;19958;-79
2021/08/23 09:09:35;;;;;;;;;;;32.40;84.00;;;;;;5050147;28;19905;-80
2021/08/23 09:12:02;;;;;;;;;;;32.50;84.00;;;;;;5051510;28;19947;-77
2021/08/23 09:14:28;;;;;;;;;;;32.70;82.70;;;;;;5041565;28;20008;-78
2021/08/23 09:17:02;;;;;;;;;;;33.10;82.00;;;;;;5047452;28;20003;-78
2021/08/23 09:19:28;;;;;;;;;;;33.40;81.90;;;;;;5038768;28;19913;-78
2021/08/23 09:21:58;;;;;;;;;;;33.50;82.20;;;;;;5040565;28;20004;-78
2021/08/23 09:24:24;;;;;;;;;;;33.70;80.80;;;;;;5031205;28;19905;-79
2021/08/23 09:26:49;;;;;;;;;;;34.00;80.70;;;;;;5029750;28;19974;-79
2021/08/23 09:29:15;;;;;;;;;;;34.30;80.10;;;;;;5034650;28;19952;-78
2021/08/23 09:31:41;;;;;;;;;;;34.50;78.50;;;;;;5047044;28;20267;-78
2021/08/23 09:34:08;;;;;;;;;;;34.70;79.10;;;;;;5040545;28;19905;-79
2021/08/23 09:36:34;;;;;;;;;;;34.70;78.70;;;;;;5045218;28;19947;-79
2021/08/23 09:39:02;;;;;;;;;;;34.90;78.90;;;;;;5051103;28;19944;-78
2021/08/23 09:41:28;;;;;;;;;;;35.10;78.80;;;;;;5042087;28;19965;-75
2021/08/23 09:43:57;;;;;;;;;;;35.20;79.30;;;;;;5049721;28;19909;-75
2021/08/23 09:46:23;;;;;;;;;;;35.30;76.70;;;;;;5048925;28;19921;-77
2021/08/23 09:48:55;;;;;;;;;;;35.20;76.80;;;;;;5041807;28;20481;-76
2021/08/23 09:51:36;;;;;;;;;;;35.30;76.50;;;;;;5050691;28;19913;-78
2021/08/23 09:54:05;;;;;;;;;;;35.10;76.50;;;;;;5050178;28;20039;-79
2021/08/23 09:56:35;;;;;;;;;;;35.20;77.60;;;;;;5050149;28;19904;-78
2021/08/23 09:59:04;;;;;;;;;;;35.50;78.30;;;;;;5043815;28;19913;-78
2021/08/23 10:01:33;;;;;;;;;;;35.00;76.60;;;;;;5041649;28;20043;-77
2021/08/23 10:04:06;;;;;;;;;;;34.20;77.10;;;;;;5046919;28;19944;-79
2021/08/23 10:06:33;;;;;;;;;;;34.00;78.30;;;;;;5036371;28;19911;-77
2021/08/23 10:09:00;;;;;;;;;;;34.50;79.30;;;;;;5041757;28;19912;-81
2021/08/23 10:11:27;;;;;;;;;;;35.20;79.00;;;;;;5041201;28;19947;-78
2021/08/23 10:13:52;;;;;;;;;;;35.90;78.30;;;;;;5044873;28;19916;-77
2021/08/23 10:16:18;;;;;;;;;;;36.40;77.10;;;;;;5047487;28;19905;-79
2021/08/23 10:18:44;;;;;;;;;;;36.50;75.20;;;;;;5039537;28;20151;-80
2021/08/23 10:21:10;;;;;;;;;;;35.60;72.80;;;;;;5035460;28;19924;-76
2021/08/23 10:23:36;;;;;;;;;;;34.60;73.20;;;;;;5034244;28;20362;-79
2021/08/23 10:26:02;;;;;;;;;;;33.90;73.70;;;;;;5037185;28;20346;-79
2021/08/23 10:28:36;;;;;;;;;;;33.00;72.50;;;;;;5030854;28;19956;-78
2021/08/23 10:31:08;;;;;;;;;;;32.10;72.50;;;;;;5036297;28;19997;-81
2021/08/23 10:33:35;;;;;;;;;;;31.20;73.00;;;;;;5038944;28;19917;-81
2021/08/23 10:36:01;;;;;;;;;;;30.60;73.30;;;;;;5044509;28;20234;-79
2021/08/23 10:38:27;;;;;;;;;;;30.10;73.60;;;;;;5047891;28;19919;-79
2021/08/23 10:41:13;;;;;;;;;;;29.70;73.40;;;;;;5036096;28;19913;-79
2021/08/23 10:44:08;;;;;;;;;;;29.70;74.30;;;;;;5034100;28;19911;-81
2021/08/23 10:46:35;;;;;;;;;;;29.70;73.80;;;;;;5061105;28;19908;-81
2021/08/23 10:49:13;;;;;;;;;;;29.30;73.50;;;;;;5050801;28;19905;-78
2021/08/23 10:51:40;;;;;;;;;;;29.00;73.50;;;;;;5046991;28;19940;-82
2021/08/23 10:54:23;;;;;;;;;;;28.80;73.60;;;;;;5038626;28;19905;-78
2021/08/23 10:57:02;;;;;;;;;;;28.70;73.90;;;;;;5043091;28;19905;-78
2021/08/23 10:59:39;;;;;;;;;;;28.50;73.70;;;;;;5028960;28;20015;-81
2021/08/23 11:02:05;;;;;;;;;;;28.20;73.80;;;;;;5040281;28;19913;-79
2021/08/23 11:04:37;;;;;;;;;;;28.00;73.80;;;;;;5044392;28;19955;-82
2021/08/23 11:07:03;;;;;;;;;;;27.90;73.90;;;;;;5039744;28;19905;-79
2021/08/23 11:09:32;;;;;;;;;;;27.70;73.60;;;;;;5045522;28;19962;-79
2021/08/23 11:12:16;;;;;;;;;;;27.50;73.80;;;;;;5029973;28;19905;-78
2021/08/23 11:14:42;;;;;;;;;;;27.30;74.00;;;;;;5046692;28;20055;-78
2021/08/23 11:17:07;;;;;;;;;;;27.00;73.80;;;;;;5038738;28;20616;-80
2021/08/23 11:19:36;;;;;;;;;;;26.90;73.90;;;;;;5037928;28;19932;-80
2021/08/23 11:22:02;;;;;;;;;;;26.80;74.00;;;;;;5031910;28;19912;-76
2021/08/23 11:24:29;;;;;;;;;;;26.80;74.10;;;;;;5036526;28;19916;-77
2021/08/23 11:26:55;;;;;;;;;;;27.00;74.60;;;;;;5034704;28;19908;-78
2021/08/23 11:29:21;;;;;;;;;;;27.20;74.90;;;;;;5039932;28;20471;-76
2021/08/23 11:31:56;;;;;;;;;;;27.40;74.40;;;;;;5039867;28;20007;-80
2021/08/23 11:34:25;;;;;;;;;;;27.70;74.30;;;;;;5037975;28;20023;-79
2021/08/23 11:36:51;;;;;;;;;;;28.50;74.20;;;;;;5031162;28;19912;-80
2021/08/23 11:39:17;;;;;;;;;;;29.00;73.60;;;;;;5041391;28;19908;-81
2021/08/23 11:41:42;;;;;;;;;;;29.00;72.70;;;;;;5031578;28;19919;-81
2021/08/23 11:44:08;;;;;;;;;;;28.90;72.60;;;;;;5046595;28;19912;-83
2021/08/23 11:46:34;;;;;;;;;;;28.70;72.10;;;;;;5039211;28;20358;-83
2021/08/23 11:48:59;;;;;;;;;;;28.30;72.40;;;;;;5048335;28;20279;-82
2021/08/23 11:51:26;;;;;;;;;;;28.00;72.50;;;;;;5017042;28;19913;-82
2021/08/23 11:53:51;;;;;;;;;;;27.70;72.70;;;;;;5039671;28;19929;-79
2021/08/23 11:56:18;;;;;;;;;;;27.80;73.70;;;;;;5046859;28;19913;-84
2021/08/23 11:58:43;;;;;;;;;;;28.30;73.60;;;;;;5031237;28;20316;-78
2021/08/23 12:01:11;;;;;;;;;;;28.80;73.10;;;;;;5038384;28;20013;-78
2021/08/23 12:03:38;;;;;;;;;;;29.00;72.40;;;;;;5035544;28;19940;-77
2021/08/23 12:06:04;;;;;;;;;;;28.80;72.20;;;;;;5037756;28;19983;-78
2021/08/23 12:08:32;;;;;;;;;;;28.50;72.70;;;;;;5032178;28;19924;-79
2021/08/23 12:10:59;;;;;;;;;;;29.20;74.30;;;;;;5035315;28;19996;-78
2021/08/23 12:13:40;;;;;;;;;;;30.20;74.50;;;;;;5041684;28;19913;-78
2021/08/23 12:16:08;;;;;;;;;;;31.30;74.20;;;;;;5038643;28;19905;-79
2021/08/23 12:18:38;;;;;;;;;;;32.40;73.80;;;;;;5034890;28;20385;-78
2021/08/23 12:21:04;;;;;;;;;;;33.00;72.50;;;;;;5040951;28;19994;-78
2021/08/23 12:23:29;;;;;;;;;;;32.80;71.50;;;;;;5028709;28;19904;-77
2021/08/23 12:26:07;;;;;;;;;;;32.20;69.80;;;;;;5032798;28;19916;-77
2021/08/23 12:28:33;;;;;;;;;;;31.70;69.50;;;;;;5041517;28;19913;-77
2021/08/23 12:31:05;;;;;;;;;;;31.90;71.10;;;;;;5040788;28;19904;-76
2021/08/23 12:33:31;;;;;;;;;;;32.30;71.00;;;;;;5041996;28;19905;-77
2021/08/23 12:35:57;;;;;;;;;;;32.40;71.20;;;;;;5024776;28;19963;-78
2021/08/23 12:38:22;;;;;;;;;;;32.10;70.50;;;;;;5039101;28;20348;-78
2021/08/23 12:40:48;;;;;;;;;;;31.50;70.40;;;;;;5040831;28;19982;-80
2021/08/23 12:43:14;;;;;;;;;;;31.00;70.40;;;;;;5040939;28;19908;-78
2021/08/23 12:45:39;;;;;;;;;;;30.20;70.00;;;;;;5042775;28;19920;-76
2021/08/23 12:48:05;;;;;;;;;;;29.70;70.80;;;;;;5042458;28;20272;-76
2021/08/23 12:50:31;;;;;;;;;;;29.20;70.30;;;;;;5039069;28;19997;-77
2021/08/23 12:52:56;;;;;;;;;;;28.70;70.50;;;;;;5051930;28;19936;-76
2021/08/23 12:55:22;;;;;;;;;;;28.90;71.90;;;;;;5040221;28;19909;-76
2021/08/23 12:57:47;;;;;;;;;;;29.50;72.80;;;;;;5042091;28;19913;-77
2021/08/23 13:00:13;;;;;;;;;;;30.00;71.80;;;;;;5041228;28;19996;-78
2021/08/23 13:02:39;;;;;;;;;;;30.30;71.70;;;;;;5037544;28;19909;-80
2021/08/23 13:05:06;;;;;;;;;;;30.50;70.90;;;;;;5032134;28;20377;-77
2021/08/23 13:07:31;;;;;;;;;;;30.90;71.70;;;;;;5036482;28;19909;-78
2021/08/23 13:09:57;;;;;;;;;;;31.40;70.90;;;;;;5044868;28;19951;-79
2021/08/23 13:12:22;;;;;;;;;;;31.30;70.50;;;;;;5043797;28;20012;-77
2021/08/23 13:14:48;;;;;;;;;;;31.40;70.90;;;;;;5043658;28;20466;-78
2021/08/23 13:17:15;;;;;;;;;;;31.90;71.20;;;;;;5039651;28;20076;-77
2021/08/23 13:19:40;;;;;;;;;;;31.90;69.90;;;;;;5046741;28;20294;-80
2021/08/23 13:22:06;;;;;;;;;;;31.30;69.40;;;;;;5038664;28;19917;-75
2021/08/23 13:24:32;;;;;;;;;;;30.70;69.50;;;;;;5040617;28;19905;-78
2021/08/23 13:26:57;;;;;;;;;;;30.10;69.40;;;;;;5042146;28;19959;-78
2021/08/23 13:29:23;;;;;;;;;;;29.50;69.90;;;;;;5047322;28;19909;-75
2021/08/23 13:31:48;;;;;;;;;;;29.20;70.10;;;;;;5034585;28;19908;-77
2021/08/23 13:34:14;;;;;;;;;;;28.80;69.80;;;;;;5028992;28;19913;-78
2021/08/23 13:36:39;;;;;;;;;;;28.50;69.80;;;;;;5042520;28;19992;-78
2021/08/23 13:39:05;;;;;;;;;;;28.10;69.60;;;;;;5050906;28;19909;-79
2021/08/23 13:41:31;;;;;;;;;;;27.90;69.90;;;;;;5031035;28;20338;-78
2021/08/23 13:43:56;;;;;;;;;;;27.70;69.80;;;;;;5041889;28;19933;-79
2021/08/23 13:46:22;;;;;;;;;;;27.60;69.40;;;;;;5049002;28;20382;-76
2021/08/23 13:48:47;;;;;;;;;;;27.30;68.20;;;;;;5049959;28;19913;-77
2021/08/23 13:51:13;;;;;;;;;;;27.20;68.10;;;;;;5045538;28;19912;-78
2021/08/23 13:53:39;;;;;;;;;;;27.20;67.40;;;;;;5031892;28;19917;-77
2021/08/23 13:56:04;;;;;;;;;;;27.20;67.70;;;;;;5035852;28;19917;-78
2021/08/23 13:58:30;;;;;;;;;;;27.20;67.90;;;;;;5045665;28;19905;-77
2021/08/23 14:00:56;;;;;;;;;;;27.20;67.80;;;;;;5043401;28;19909;-76
2021/08/23 14:03:21;;;;;;;;;;;27.10;67.90;;;;;;5049762;28;19921;-78
2021/08/23 14:05:47;;;;;;;;;;;27.10;68.10;;;;;;5044841;28;20248;-77
2021/08/23 14:08:12;;;;;;;;;;;27.00;67.70;;;;;;5020874;28;20038;-75
2021/08/23 14:10:39;;;;;;;;;;;26.90;68.00;;;;;;5038861;28;20329;-80
2021/08/23 14:13:04;;;;;;;;;;;26.90;68.30;;;;;;5023661;28;19924;-75